Time;durP1;ratioP1;P1;durP2;ratioP2;P2;SDS_P1;SDS_P2;PMS_P1;PMS_P2;Temp;Humidity;BMP_temperature;BMP_pressure;BME280_temperature;BME280_humidity;BME280_pressure;Samples;Min_cycle;Max_cycle;Signal;HPM_P1;HPM_P2
2022/07/22 00:01:38;;;;;;;8.15;1.80;;;;;;;17.08;73.57;102163.22;5031073;28;20102;-78
2022/07/22 00:04:03;;;;;;;9.32;1.77;;;;;;;17.03;73.45;102156.69;5031323;28;20540;-78
2022/07/22 00:06:29;;;;;;;12.02;1.63;;;;;;;17.03;73.60;102164.84;5030681;28;20100;-79
2022/07/22 00:08:54;;;;;;;7.00;2.10;;;;;;;17.00;73.34;102163.34;5014064;28;20515;-78
2022/07/22 00:11:20;;;;;;;12.27;2.03;;;;;;;16.98;73.54;102168.16;5013971;28;20158;-77
2022/07/22 00:13:45;;;;;;;11.00;1.85;;;;;;;16.97;73.89;102160.19;5030764;28;20112;-78
2022/07/22 00:16:11;;;;;;;7.18;1.80;;;;;;;16.99;73.78;102152.66;5031017;28;20067;-77
2022/07/22 00:18:37;;;;;;;14.98;2.05;;;;;;;17.01;73.31;102153.28;5012947;28;20393;-78
2022/07/22 00:21:02;;;;;;;14.80;1.98;;;;;;;17.01;73.49;102156.88;5030110;28;20053;-79
2022/07/22 00:23:28;;;;;;;8.57;1.65;;;;;;;17.06;73.33;102149.00;5029886;28;20429;-79
2022/07/22 00:25:53;;;;;;;12.65;2.15;;;;;;;17.04;72.81;102152.94;5029935;28;20068;-79
2022/07/22 00:28:19;;;;;;;6.20;1.65;;;;;;;17.01;72.92;102153.28;5012324;28;20026;-78
2022/07/22 00:30:44;;;;;;;10.43;1.92;;;;;;;17.02;72.58;102146.84;4996174;28;20133;-79
2022/07/22 00:33:10;;;;;;;11.30;2.03;;;;;;;17.06;72.10;102154.44;5030356;28;20029;-78
2022/07/22 00:35:36;;;;;;;5.65;1.63;;;;;;;17.12;72.15;102147.38;5031309;28;20052;-78
2022/07/22 00:38:01;;;;;;;8.23;1.95;;;;;;;17.13;72.09;102142.78;5016561;28;20381;-77
2022/07/22 00:40:27;;;;;;;8.82;1.92;;;;;;;17.11;72.21;102154.69;5033834;28;20096;-78
2022/07/22 00:42:52;;;;;;;8.65;2.10;;;;;;;17.12;72.37;102152.81;5033709;28;20109;-78
2022/07/22 00:45:18;;;;;;;10.45;1.80;;;;;;;17.13;72.63;102131.88;5016072;28;20033;-78
2022/07/22 00:47:43;;;;;;;8.88;1.77;;;;;;;17.10;72.45;102142.09;5034541;28;20076;-79
2022/07/22 00:50:10;;;;;;;12.35;1.85;;;;;;;17.10;72.23;102141.28;5033992;28;20030;-78
2022/07/22 00:52:36;;;;;;;4.35;1.67;;;;;;;17.08;72.09;102137.91;5034291;28;20029;-78
2022/07/22 00:55:03;;;;;;;9.85;1.90;;;;;;;17.03;71.87;102127.59;5000448;28;20032;-78
2022/07/22 00:57:28;;;;;;;9.10;1.75;;;;;;;16.98;72.00;102130.09;5001121;28;20175;-78
2022/07/22 00:59:57;;;;;;;9.25;1.33;;;;;;;16.96;71.50;102129.41;5016947;28;20064;-79
2022/07/22 01:02:22;;;;;;;8.35;1.65;;;;;;;16.89;71.47;102131.22;5003895;28;20033;-78
2022/07/22 01:04:47;;;;;;;22.80;2.13;;;;;;;16.86;71.48;102139.78;5037015;28;20033;-78
2022/07/22 01:07:13;;;;;;;13.68;2.08;;;;;;;16.86;70.97;102137.88;5037933;28;20031;-78
2022/07/22 01:09:42;;;;;;;5.85;1.73;;;;;;;16.83;70.64;102130.13;5036292;28;20026;-78
2022/07/22 01:12:08;;;;;;;4.55;1.42;;;;;;;16.83;70.26;102132.84;5034345;28;20037;-78
2022/07/22 01:14:33;;;;;;;9.82;1.70;;;;;;;16.84;69.92;102130.94;5033829;28;20035;-78
2022/07/22 01:16:59;;;;;;;4.88;1.45;;;;;;;16.85;69.45;102125.34;5033792;28;20053;-78
2022/07/22 01:19:24;;;;;;;4.75;1.40;;;;;;;16.85;69.15;102125.34;5016378;28;20021;-78
2022/07/22 01:21:49;;;;;;;7.63;1.50;;;;;;;16.84;68.58;102131.78;5016349;28;20085;-79
2022/07/22 01:24:15;;;;;;;3.75;1.10;;;;;;;16.84;68.05;102129.06;5015720;28;20079;-78
2022/07/22 01:26:40;;;;;;;4.43;1.50;;;;;;;16.87;68.19;102127.84;5000000;28;20030;-78
2022/07/22 01:29:07;;;;;;;6.68;1.77;;;;;;;16.85;68.73;102119.03;5034154;28;20490;-79
2022/07/22 01:31:33;;;;;;;6.65;1.48;;;;;;;16.85;68.81;102122.63;5034503;28;20139;-79
2022/07/22 01:33:59;;;;;;;5.25;1.75;;;;;;;16.86;69.28;102116.13;5016507;28;20033;-77
2022/07/22 01:36:24;;;;;;;7.80;1.60;;;;;;;16.89;69.36;102120.34;5015979;28;20041;-78
2022/07/22 01:38:50;;;;;;;6.30;1.38;;;;;;;16.89;69.44;102121.19;5033754;28;20500;-79
2022/07/22 01:41:15;;;;;;;8.55;1.55;;;;;;;16.86;68.62;102121.56;5034031;28;20021;-78
2022/07/22 01:43:40;;;;;;;7.03;1.88;;;;;;;16.87;68.79;102127.84;5016733;28;20025;-79
2022/07/22 01:46:06;;;;;;;5.18;1.30;;;;;;;16.86;68.66;102121.56;5016230;28;20113;-77
2022/07/22 01:48:33;;;;;;;7.13;1.25;;;;;;;16.87;69.28;102123.25;5035906;28;20072;-78
2022/07/22 01:50:59;;;;;;;4.75;1.10;;;;;;;16.85;68.88;102111.75;5034066;28;20018;-78
2022/07/22 01:53:24;;;;;;;6.03;1.48;;;;;;;16.93;69.09;102120.78;5034660;28;20039;-78
2022/07/22 01:55:50;;;;;;;7.38;1.38;;;;;;;16.95;69.05;102116.00;5017861;28;20025;-78
2022/07/22 01:58:15;;;;;;;9.60;1.33;;;;;;;16.92;68.92;102119.13;5034592;28;20562;-79
2022/07/22 02:00:41;;;;;;;9.05;1.48;;;;;;;16.92;69.32;102124.56;5033609;28;20425;-78
2022/07/22 02:03:06;;;;;;;10.70;1.52;;;;;;;16.89;69.36;102120.34;5019599;28;20362;-79
2022/07/22 02:05:33;;;;;;;6.65;1.67;;;;;;;16.85;69.80;102114.47;5018193;28;20099;-79
2022/07/22 02:08:03;;;;;;;5.43;0.98;;;;;;;16.84;70.75;102115.47;5018868;28;20121;-78
2022/07/22 02:10:28;;;;;;;9.52;1.70;;;;;;;16.82;70.62;102119.41;5019276;28;20369;-77
2022/07/22 02:12:54;;;;;;;4.75;1.35;;;;;;;16.79;70.81;102114.38;5033945;28;20040;-79
2022/07/22 02:15:20;;;;;;;6.43;1.30;;;;;;;16.76;71.10;102107.41;5034974;28;20026;-77
2022/07/22 02:17:45;;;;;;;6.35;1.33;;;;;;;16.76;71.74;102106.56;5033514;28;20355;-78
2022/07/22 02:20:11;;;;;;;6.55;1.40;;;;;;;16.75;72.55;102108.44;5034460;28;20608;-78
2022/07/22 02:22:36;;;;;;;5.03;1.15;;;;;;;16.76;72.52;102107.41;5033463;28;20481;-78
2022/07/22 02:25:02;;;;;;;8.18;1.38;;;;;;;16.76;71.98;102104.69;5032787;28;20035;-79
2022/07/22 02:27:28;;;;;;;6.38;1.30;;;;;;;16.78;71.54;102112.69;5033068;28;20033;-79
2022/07/22 02:29:53;;;;;;;7.60;1.60;;;;;;;16.77;71.78;102109.16;5032644;28;20408;-77
2022/07/22 02:32:18;;;;;;;8.02;1.52;;;;;;;16.79;71.96;102109.78;5013411;28;20408;-78
2022/07/22 02:34:44;;;;;;;7.28;1.23;;;;;;;16.81;72.49;102107.72;5053126;22;20468;-34
2022/07/22 02:37:09;;;;;;;9.40;1.60;;;;;;;16.82;72.01;102101.22;5021122;28;20029;-37
2022/07/22 02:39:34;;;;;;;3.08;0.93;;;;;;;16.83;71.89;102100.22;5034118;28;20021;-37
2022/07/22 02:42:00;;;;;;;6.25;1.58;;;;;;;16.83;72.22;102094.78;5034912;28;20036;-36
2022/07/22 02:44:25;;;;;;;6.55;1.33;;;;;;;16.82;72.49;102097.66;5017411;28;20037;-37
2022/07/22 02:46:50;;;;;;;7.20;1.42;;;;;;;16.79;73.46;102087.19;5018846;28;20026;-38
2022/07/22 02:49:16;;;;;;;10.95;1.30;;;;;;;16.77;73.34;102092.81;5019208;28;20040;-35
2022/07/22 02:51:41;;;;;;;8.93;1.52;;;;;;;16.75;73.83;102094.88;5030114;28;20065;-38
2022/07/22 02:54:07;;;;;;;11.30;1.75;;;;;;;16.74;73.32;102087.72;5038784;28;20025;-37
2022/07/22 02:56:32;;;;;;;10.32;1.58;;;;;;;16.73;73.55;102083.31;5038238;28;20025;-36
2022/07/22 02:58:57;;;;;;;3.60;1.52;;;;;;;16.72;74.01;102081.66;5038251;28;20018;-36
2022/07/22 03:01:23;;;;;;;6.90;1.65;;;;;;;16.67;73.88;102084.09;5038880;28;20060;-34
2022/07/22 03:03:48;;;;;;;5.28;1.40;;;;;;;16.66;73.81;102087.84;5039195;28;20041;-35
2022/07/22 03:06:13;;;;;;;8.20;1.42;;;;;;;16.60;73.92;102089.47;5038079;28;20101;-37
2022/07/22 03:08:39;;;;;;;8.52;1.90;;;;;;;16.54;74.41;102083.97;5028837;28;20037;-34
2022/07/22 03:11:05;;;;;;;7.15;1.88;;;;;;;16.52;75.10;102086.00;5018136;28;20030;-38
2022/07/22 03:13:30;;;;;;;10.60;1.45;;;;;;;16.49;75.50;102081.81;5019256;28;20018;-35
2022/07/22 03:15:55;;;;;;;10.32;1.75;;;;;;;16.49;75.71;102089.13;5019288;28;20461;-34
2022/07/22 03:18:21;;;;;;;9.75;1.15;;;;;;;16.48;75.95;102090.97;5018125;28;20033;-35
2022/07/22 03:20:46;;;;;;;9.40;1.92;;;;;;;16.41;76.46;102088.19;5019422;28;20030;-34
2022/07/22 03:23:12;;;;;;;3.47;1.20;;;;;;;16.37;76.50;102086.03;5000799;28;20018;-35
2022/07/22 03:25:38;;;;;;;9.07;1.60;;;;;;;16.31;76.58;102093.06;5018560;28;20018;-37
2022/07/22 03:28:04;;;;;;;7.32;1.40;;;;;;;16.26;77.31;102086.53;5018436;28;20033;-34
2022/07/22 03:30:29;;;;;;;7.13;1.40;;;;;;;16.23;77.63;102090.47;5019720;28;20053;-34
2022/07/22 03:32:55;;;;;;;6.40;1.38;;;;;;;16.21;77.49;102089.81;5018285;28;20051;-34
2022/07/22 03:35:20;;;;;;;8.15;1.67;;;;;;;16.23;77.73;102093.19;5018451;28;20484;-35
2022/07/22 03:37:45;;;;;;;6.30;1.30;;;;;;;16.30;77.64;102091.41;5018630;28;20026;-35
2022/07/22 03:40:11;;;;;;;9.52;1.42;;;;;;;16.31;77.72;102094.94;5018039;28;20038;-36
2022/07/22 03:42:37;;;;;;;4.57;1.40;;;;;;;16.28;78.19;102088.03;5027454;28;20029;-37
2022/07/22 03:45:02;;;;;;;9.27;1.83;;;;;;;16.29;78.38;102080.72;5037926;28;20079;-37
2022/07/22 03:47:28;;;;;;;8.40;2.15;;;;;;;16.30;78.24;102088.69;5038865;28;20147;-35
2022/07/22 03:49:53;;;;;;;6.53;1.55;;;;;;;16.32;77.96;102089.31;5038906;28;20041;-37
2022/07/22 03:52:18;;;;;;;8.23;1.60;;;;;;;16.36;78.28;102085.19;5038493;28;20117;-35
2022/07/22 03:54:44;;;;;;;11.65;1.30;;;;;;;16.36;77.96;102087.91;5038778;28;20021;-36
2022/07/22 03:57:10;;;;;;;14.45;1.52;;;;;;;16.40;77.76;102088.38;5038452;28;20030;-37
2022/07/22 03:59:35;;;;;;;5.93;1.73;;;;;;;16.43;77.53;102091.56;5020929;28;20026;-35
2022/07/22 04:02:02;;;;;;;6.95;1.58;;;;;;;16.49;77.63;102100.00;5038658;28;20056;-38
2022/07/22 04:04:27;;;;;;;12.30;1.77;;;;;;;16.49;77.66;102102.72;5037951;28;20037;-38
2022/07/22 04:06:52;;;;;;;8.93;1.48;;;;;;;16.50;78.24;102094.34;5037577;28;20026;-36
2022/07/22 04:09:18;;;;;;;7.80;1.67;;;;;;;16.50;78.48;102094.34;5037732;28;20431;-37
2022/07/22 04:11:43;;;;;;;5.40;1.20;;;;;;;16.50;78.19;102099.78;5040779;28;20037;-36
2022/07/22 04:14:09;;;;;;;4.32;1.90;;;;;;;16.52;78.66;102097.72;5042381;28;20033;-35
2022/07/22 04:16:34;;;;;;;8.32;1.63;;;;;;;16.51;78.66;102096.06;5023819;28;20045;-37
2022/07/22 04:19:00;;;;;;;9.20;1.45;;;;;;;16.56;78.51;102092.75;5023591;28;20108;-36
2022/07/22 04:21:26;;;;;;;17.33;3.80;;;;;;;16.56;77.98;102101.75;5041536;28;20029;-37
2022/07/22 04:23:52;;;;;;;9.02;2.47;;;;;;;16.57;78.30;102097.16;5023596;28;20099;-36
2022/07/22 04:26:17;;;;;;;9.10;1.98;;;;;;;16.60;78.82;102088.63;5024114;28;20026;-38
2022/07/22 04:28:42;;;;;;;11.43;2.00;;;;;;;16.60;78.18;102085.91;5042082;28;20056;-35
2022/07/22 04:31:08;;;;;;;7.93;1.48;;;;;;;16.59;77.53;102089.66;5042088;28;20059;-36
2022/07/22 04:33:33;;;;;;;7.72;1.65;;;;;;;16.60;77.96;102094.06;5040482;28;20152;-34
2022/07/22 04:35:59;;;;;;;5.22;1.52;;;;;;;16.63;77.86;102091.78;5042322;28;20076;-35
2022/07/22 04:38:24;;;;;;;9.65;1.60;;;;;;;16.71;77.76;102090.00;5041642;28;20032;-37
2022/07/22 04:40:49;;;;;;;5.10;1.40;;;;;;;16.78;77.18;102086.34;5040752;28;20068;-35
2022/07/22 04:43:15;;;;;;;17.25;1.60;;;;;;;16.82;76.48;102087.63;5041437;28;20037;-36
2022/07/22 04:45:40;;;;;;;3.72;1.20;;;;;;;16.87;76.22;102090.63;5041279;28;20105;-36
2022/07/22 04:48:05;;;;;;;7.43;1.60;;;;;;;16.88;75.79;102084.16;5041247;28;20079;-34
2022/07/22 04:50:31;;;;;;;8.93;1.23;;;;;;;16.91;75.65;102096.53;5042179;28;20030;-37
2022/07/22 04:52:56;;;;;;;11.00;1.65;;;;;;;16.94;74.91;102098.84;5041816;28;20053;-37
2022/07/22 04:55:21;;;;;;;8.50;1.73;;;;;;;16.94;74.68;102096.13;5041677;28;20029;-37
2022/07/22 04:57:47;;;;;;;8.93;1.30;;;;;;;16.96;75.14;102099.50;5040000;28;20033;-36
2022/07/22 05:00:13;;;;;;;5.50;1.50;;;;;;;17.01;74.93;102093.47;5040267;28;20541;-36
2022/07/22 05:02:38;;;;;;;7.88;1.75;;;;;;;17.06;75.38;102096.44;5041204;28;20063;-35
2022/07/22 05:05:04;;;;;;;5.95;1.13;;;;;;;17.08;74.71;102091.66;5041032;28;20026;-35
2022/07/22 05:07:29;;;;;;;2.85;0.93;;;;;;;17.17;73.76;102085.06;5023454;28;20449;-36
2022/07/22 05:09:55;;;;;;;9.20;1.70;;;;;;;17.25;72.99;102084.94;5041329;28;20063;-37
2022/07/22 05:12:20;;;;;;;4.50;1.58;;;;;;;17.39;72.00;102090.47;5041373;28;20042;-36
2022/07/22 05:14:45;;;;;;;7.90;1.38;;;;;;;17.45;71.60;102086.97;5023981;28;20048;-35
2022/07/22 05:17:11;;;;;;;1.27;0.80;;;;;;;17.52;71.18;102085.97;5041125;28;20033;-34
2022/07/22 05:19:39;;;;;;;15.60;1.20;;;;;;;17.61;70.57;102083.94;5040181;28;20026;-35
2022/07/22 05:22:05;;;;;;;4.00;1.38;;;;;;;17.64;69.01;102085.41;5039817;28;20032;-34
2022/07/22 05:24:30;;;;;;;5.90;1.27;;;;;;;17.59;69.58;102077.88;5040630;28;20067;-34
2022/07/22 05:26:57;;;;;;;4.32;1.40;;;;;;;17.64;69.63;102080.84;5040934;28;20052;-35
2022/07/22 05:29:22;;;;;;;4.10;1.42;;;;;;;17.62;69.30;102080.19;5040606;28;20104;-35
2022/07/22 05:31:48;;;;;;;4.20;1.10;;;;;;;17.68;69.52;102090.28;5040887;28;20137;-36
2022/07/22 05:34:13;;;;;;;5.38;1.65;;;;;;;17.62;69.97;102087.53;5040643;28;20377;-35
2022/07/22 05:36:38;;;;;;;9.30;1.52;;;;;;;17.63;70.01;102090.03;5022922;28;20428;-35
2022/07/22 05:39:04;;;;;;;5.50;1.33;;;;;;;17.60;71.00;102085.00;5040428;28;20025;-36
2022/07/22 05:41:29;;;;;;;5.50;1.40;;;;;;;17.62;70.96;102090.25;5040619;28;20495;-37
2022/07/22 05:43:54;;;;;;;2.75;1.35;;;;;;;17.66;69.05;102088.78;5040243;28;20093;-36
2022/07/22 05:46:20;;;;;;;3.70;1.00;;;;;;;17.67;69.14;102079.59;5040883;28;20026;-36
2022/07/22 05:48:45;;;;;;;5.95;1.48;;;;;;;17.70;68.81;102085.47;5040562;28;20539;-37
2022/07/22 05:51:12;;;;;;;7.10;1.60;;;;;;;17.73;68.59;102085.09;5040522;28;20619;-36
2022/07/22 05:53:38;;;;;;;4.50;1.35;;;;;;;17.84;67.99;102091.03;5040684;28;20032;-36
2022/07/22 05:56:03;;;;;;;4.30;1.10;;;;;;;17.89;67.14;102088.56;5040280;28;20120;-35
2022/07/22 05:58:29;;;;;;;2.42;0.90;;;;;;;17.99;67.02;102097.22;5039734;28;20520;-37
2022/07/22 06:00:54;;;;;;;5.07;1.10;;;;;;;17.98;66.41;102088.22;5040518;28;20044;-35
2022/07/22 06:03:19;;;;;;;5.85;1.50;;;;;;;18.03;67.17;102094.94;5040588;28;20028;-38
2022/07/22 06:05:45;;;;;;;4.30;1.25;;;;;;;18.12;67.25;102088.28;5040811;28;20026;-36
2022/07/22 06:08:10;;;;;;;6.95;1.60;;;;;;;18.29;67.06;102086.06;5040051;28;20021;-37
2022/07/22 06:10:35;;;;;;;5.18;1.02;;;;;;;18.44;67.19;102089.47;5040338;28;20021;-35
2022/07/22 06:13:01;;;;;;;12.35;1.42;;;;;;;18.49;65.46;102088.88;5021966;28;20029;-34
2022/07/22 06:15:26;;;;;;;4.63;1.20;;;;;;;18.49;66.17;102084.25;5040503;28;20034;-36
2022/07/22 06:17:51;;;;;;;6.88;1.35;;;;;;;18.61;66.58;102079.88;5040125;28;20037;-36
2022/07/22 06:20:17;;;;;;;4.97;1.15;;;;;;;18.73;65.82;102073.84;5039744;28;20026;-37
2022/07/22 06:22:43;;;;;;;3.08;1.15;;;;;;;18.84;64.50;102081.44;5040022;28;20038;-37
2022/07/22 06:25:08;;;;;;;4.65;1.15;;;;;;;18.90;64.43;102079.78;5040184;28;20076;-35
2022/07/22 06:27:34;;;;;;;4.95;1.35;;;;;;;18.93;63.83;102080.22;5040228;28;20037;-35
2022/07/22 06:30:00;;;;;;;4.25;1.17;;;;;;;18.96;62.89;102085.25;5039727;28;20033;-36
2022/07/22 06:32:25;;;;;;;4.50;1.10;;;;;;;18.94;63.06;102091.97;5022513;28;20083;-35
2022/07/22 06:34:50;;;;;;;7.97;1.95;;;;;;;18.85;63.13;102088.56;5021834;28;20041;-38
2022/07/22 06:37:16;;;;;;;5.35;1.30;;;;;;;18.91;63.36;102092.38;5040025;28;20025;-38
2022/07/22 06:39:41;;;;;;;6.45;1.25;;;;;;;18.75;63.64;102088.16;5039349;28;20052;-38
2022/07/22 06:42:08;;;;;;;5.22;1.20;;;;;;;18.64;64.11;102095.84;5040103;28;20025;-35
2022/07/22 06:44:33;;;;;;;8.63;1.27;;;;;;;18.68;63.77;102092.69;5021769;28;20021;-37
2022/07/22 06:46:59;;;;;;;14.00;1.70;;;;;;;18.71;63.47;102090.41;5039359;28;20053;-37
2022/07/22 06:49:24;;;;;;;7.80;1.30;;;;;;;18.71;62.72;102087.66;5039327;28;20036;-35
2022/07/22 06:51:50;;;;;;;5.28;0.90;;;;;;;18.81;63.35;102090.03;5020869;28;20132;-37
2022/07/22 06:54:15;;;;;;;4.70;1.30;;;;;;;18.74;62.77;102080.97;5021894;28;20060;-37
2022/07/22 06:56:40;;;;;;;4.53;1.10;;;;;;;18.75;63.73;102085.41;5039173;28;20022;-35
2022/07/22 06:59:06;;;;;;;8.02;1.60;;;;;;;18.71;63.86;102089.56;5039285;28;20025;-35
2022/07/22 07:01:31;;;;;;;6.03;1.10;;;;;;;18.72;64.69;102089.38;5039117;28;20397;-38
2022/07/22 07:03:56;;;;;;;6.07;1.27;;;;;;;18.84;62.55;102101.38;5038681;28;20029;-34
2022/07/22 07:06:22;;;;;;;7.30;1.30;;;;;;;18.89;61.73;102098.03;5038815;28;20104;-35
2022/07/22 07:08:47;;;;;;;3.55;1.10;;;;;;;18.74;63.51;102094.59;5040302;28;20022;-37
2022/07/22 07:11:12;;;;;;;7.07;0.98;;;;;;;18.66;63.48;102098.34;5039594;28;20025;-37
2022/07/22 07:13:39;;;;;;;4.28;0.98;;;;;;;18.77;63.74;102094.22;5040232;28;20045;-37
2022/07/22 07:16:04;;;;;;;2.92;1.20;;;;;;;18.96;63.53;102092.59;5021035;28;20111;-36
2022/07/22 07:18:30;;;;;;;4.43;1.23;;;;;;;19.13;62.23;102095.75;5038949;28;20052;-35
2022/07/22 07:20:55;;;;;;;4.82;1.08;;;;;;;19.27;61.61;102091.97;5038637;28;20037;-35
2022/07/22 07:23:21;;;;;;;6.85;1.45;;;;;;;19.35;60.07;102090.94;5020815;28;20042;-37
2022/07/22 07:25:46;;;;;;;2.00;1.20;;;;;;;19.26;60.88;102098.50;5038656;28;20021;-37
2022/07/22 07:28:11;;;;;;;5.28;1.52;;;;;;;19.27;60.78;102094.72;5038308;28;20478;-34
2022/07/22 07:30:37;;;;;;;5.57;1.50;;;;;;;19.21;60.76;102093.66;5039531;28;20018;-35
2022/07/22 07:33:02;;;;;;;12.65;1.65;;;;;;;19.11;60.41;102084.19;5038903;28;20029;-38
2022/07/22 07:35:28;;;;;;;11.15;1.60;;;;;;;19.21;60.81;102099.13;5038055;28;20041;-38
2022/07/22 07:37:54;;;;;;;7.38;1.30;;;;;;;19.52;59.33;102087.56;5038534;28;20025;-37
2022/07/22 07:40:19;;;;;;;7.70;1.40;;;;;;;19.75;58.15;102089.06;5038444;28;20029;-36
2022/07/22 07:42:45;;;;;;;6.00;1.25;;;;;;;20.04;59.24;102092.38;5040475;28;20113;-37
2022/07/22 07:45:11;;;;;;;6.60;1.30;;;;;;;20.59;56.80;102096.38;5041926;28;20025;-34
2022/07/22 07:47:36;;;;;;;5.07;1.42;;;;;;;21.48;55.09;102093.66;5044226;28;20026;-35
2022/07/22 07:50:07;;;;;;;5.93;1.35;;;;;;;21.99;53.09;102099.94;5044402;28;20037;-34
2022/07/22 07:52:40;;;;;;;5.68;1.17;;;;;;;22.18;51.54;102092.56;5043495;28;20037;-34
2022/07/22 07:55:06;;;;;;;6.13;1.33;;;;;;;22.01;52.13;102081.34;5043322;28;20101;-38
2022/07/22 07:57:32;;;;;;;2.30;0.90;;;;;;;21.77;53.47;102086.66;5042822;28;20136;-36
2022/07/22 07:59:57;;;;;;;6.65;1.02;;;;;;;21.68;53.96;102090.75;5043072;28;20041;-35
2022/07/22 08:02:22;;;;;;;4.28;0.95;;;;;;;21.44;53.68;102070.56;5042125;28;20064;-37
2022/07/22 08:04:48;;;;;;;4.95;1.10;;;;;;;21.17;54.54;102078.97;5042274;28;20132;-38
2022/07/22 08:07:14;;;;;;;11.60;1.58;;;;;;;20.93;55.85;102086.09;5042003;28;20044;-37
2022/07/22 08:09:41;;;;;;;5.75;1.40;;;;;;;20.87;55.51;102081.47;5042242;28;20035;-35
2022/07/22 08:12:07;;;;;;;10.20;1.73;;;;;;;20.71;55.32;102082.84;5042296;28;20018;-35
2022/07/22 08:14:32;;;;;;;11.93;1.73;;;;;;;20.59;56.86;102079.13;5041484;28;20056;-37
2022/07/22 08:16:58;;;;;;;6.97;1.30;;;;;;;20.50;57.47;102074.94;5042625;28;20022;-35
2022/07/22 08:19:23;;;;;;;4.97;1.45;;;;;;;20.50;56.81;102070.28;5042903;28;20053;-37
2022/07/22 08:21:48;;;;;;;10.50;1.40;;;;;;;20.68;57.22;102066.03;5041791;28;20052;-38
2022/07/22 08:24:13;;;;;;;8.20;1.45;;;;;;;20.79;56.22;102073.53;5040876;28;20022;-37
2022/07/22 08:26:39;;;;;;;3.75;1.27;;;;;;;20.67;56.32;102064.34;5040104;28;20041;-35
2022/07/22 08:29:05;;;;;;;4.18;1.40;;;;;;;20.44;56.73;102070.34;5041901;28;20028;-36
2022/07/22 08:31:34;;;;;;;6.20;1.20;;;;;;;20.19;57.57;102073.78;5042422;28;20084;-35
2022/07/22 08:34:00;;;;;;;5.22;1.50;;;;;;;20.20;57.79;102056.34;5041958;28;20562;-38
2022/07/22 08:36:25;;;;;;;5.78;1.30;;;;;;;20.11;58.87;102061.19;5041957;28;20025;-36
2022/07/22 08:38:50;;;;;;;5.88;1.50;;;;;;;20.02;57.87;102069.88;5042790;28;20056;-36
2022/07/22 08:41:17;;;;;;;7.68;1.63;;;;;;;20.14;58.74;102074.47;5042652;28;20026;-37
2022/07/22 08:43:44;;;;;;;5.93;1.38;;;;;;;20.23;58.36;102080.53;5023250;28;20517;-38
2022/07/22 08:46:09;;;;;;;8.00;1.75;;;;;;;20.52;55.99;102073.66;5043034;28;20108;-36
2022/07/22 08:48:37;;;;;;;5.22;1.40;;;;;;;20.55;56.42;102067.78;5042816;28;20505;-35
2022/07/22 08:51:02;;;;;;;9.43;1.55;;;;;;;20.48;56.76;102056.00;5041787;28;20121;-36
2022/07/22 08:53:28;;;;;;;3.80;1.17;;;;;;;20.75;56.21;102056.72;5041764;28;20030;-35
2022/07/22 08:55:53;;;;;;;5.35;1.55;;;;;;;20.93;55.02;102057.84;5042110;28;20468;-34
2022/07/22 08:58:18;;;;;;;5.07;1.30;;;;;;;20.93;54.44;102063.31;5041874;28;20357;-34
2022/07/22 09:00:44;;;;;;;3.83;1.30;;;;;;;20.95;54.76;102066.69;5042282;28;20034;-36
2022/07/22 09:03:17;;;;;;;5.07;1.20;;;;;;;20.81;54.79;102064.03;5041365;28;20055;-35
2022/07/22 09:05:43;;;;;;;5.13;1.40;;;;;;;20.59;56.27;102065.47;5041279;28;20036;-35
2022/07/22 09:08:09;;;;;;;11.40;1.58;;;;;;;20.50;56.40;102048.41;5041512;28;20085;-36
2022/07/22 09:10:35;;;;;;;8.38;1.42;;;;;;;20.51;57.16;102049.25;5041332;28;20057;-35
2022/07/22 09:13:03;;;;;;;6.32;1.25;;;;;;;20.62;56.83;102045.88;5041244;28;20025;-37
2022/07/22 09:15:37;;;;;;;6.25;1.75;;;;;;;20.67;55.28;102043.31;5040777;28;20033;-37
2022/07/22 09:18:04;;;;;;;3.63;1.67;;;;;;;21.08;54.59;102043.84;5041611;28;20053;-36
2022/07/22 09:20:30;;;;;;;7.68;1.80;;;;;;;21.78;54.08;102040.94;5041448;28;20533;-37
2022/07/22 09:22:55;;;;;;;5.25;1.20;;;;;;;21.91;51.99;102046.25;5041563;28;20064;-36
2022/07/22 09:25:47;;;;;;;7.63;1.88;;;;;;;21.69;52.82;102054.91;5041374;28;20033;-36
2022/07/22 09:28:20;;;;;;;7.97;1.50;;;;;;;21.74;52.67;102059.69;5036888;28;20045;-36
2022/07/22 09:30:52;;;;;;;8.02;1.30;;;;;;;22.35;51.23;102060.69;5041067;28;20113;-38
2022/07/22 09:33:18;;;;;;;4.47;1.13;;;;;;;22.25;50.27;102049.44;5041205;28;20159;-35
2022/07/22 09:35:45;;;;;;;12.73;2.28;;;;;;;22.13;50.31;102060.31;5022891;28;20115;-34
2022/07/22 09:38:12;;;;;;;7.13;1.77;;;;;;;21.93;50.56;102060.53;5040912;28;20056;-34
2022/07/22 09:40:47;;;;;;;3.50;0.90;;;;;;;21.88;50.57;102061.25;5040525;28;20021;-35
2022/07/22 09:43:16;;;;;;;8.77;1.77;;;;;;;21.77;51.62;102064.72;5041235;28;20124;-35
2022/07/22 09:45:47;;;;;;;4.70;1.38;;;;;;;21.82;51.59;102066.78;5041161;28;20358;-34
2022/07/22 09:48:12;;;;;;;5.05;1.15;;;;;;;21.73;50.71;102073.66;5041138;28;20041;-35
2022/07/22 09:50:38;;;;;;;5.75;1.50;;;;;;;21.69;52.25;102071.34;5040681;28;20437;-35
2022/07/22 09:53:03;;;;;;;6.15;1.58;;;;;;;21.87;51.37;102061.47;5023065;28;20112;-34
2022/07/22 09:55:29;;;;;;;4.68;1.45;;;;;;;21.94;50.82;102070.47;5023414;28;20033;-36
2022/07/22 09:57:57;;;;;;;4.40;1.27;;;;;;;21.80;50.75;102068.91;5040788;28;20464;-37
2022/07/22 10:00:25;;;;;;;6.88;2.70;;;;;;;21.72;51.74;102070.03;5040592;28;20029;-34
2022/07/22 10:02:53;;;;;;;5.95;1.35;;;;;;;21.58;52.75;102074.81;5041848;28;20044;-35
2022/07/22 10:05:22;;;;;;;5.30;1.65;;;;;;;22.06;51.38;102068.63;5041033;28;20029;-35
2022/07/22 10:07:48;;;;;;;4.65;1.30;;;;;;;22.46;49.67;102062.69;5039293;28;20461;-37
2022/07/22 10:10:16;;;;;;;6.25;1.50;;;;;;;22.39;49.72;102061.94;5039305;28;20041;-35
2022/07/22 10:12:41;;;;;;;;;;;;;;;22.61;48.84;102066.91;5040128;28;20030;-37
2022/07/22 10:15:07;;;;;;;3.30;0.82;;;;;;;22.56;49.24;102073.94;5040315;28;20006;-36
2022/07/22 10:17:35;;;;;;;4.35;1.30;;;;;;;22.56;48.60;102065.72;5040592;28;20037;-34
2022/07/22 10:20:01;;;;;;;5.55;1.30;;;;;;;22.32;48.74;102067.50;5022516;28;20504;-37
2022/07/22 10:22:38;;;;;;;5.45;1.42;;;;;;;22.08;49.79;102069.22;5023336;28;20101;-36
2022/07/22 10:25:08;;;;;;;2.97;1.30;;;;;;;22.17;49.28;102068.91;5041797;28;20423;-35
2022/07/22 10:27:50;;;;;;;5.25;1.52;;;;;;;22.24;49.70;102077.94;5041212;28;20036;-36
2022/07/22 10:30:21;;;;;;;9.48;1.10;;;;;;;22.37;48.06;102075.03;5040298;28;20109;-35
2022/07/22 10:33:02;;;;;;;6.68;1.20;;;;;;;22.16;49.49;102072.75;5041180;28;20040;-36
2022/07/22 10:35:28;;;;;;;4.60;1.20;;;;;;;22.04;50.63;102075.44;5040515;28;20306;-35
2022/07/22 10:37:55;;;;;;;9.10;1.30;;;;;;;22.35;50.65;102080.78;5041521;28;20289;-35
2022/07/22 10:40:29;;;;;;;6.35;1.35;;;;;;;22.73;48.03;102085.09;5040773;28;20025;-35
2022/07/22 10:45:56;;;;;;;7.82;1.52;;;;;;;23.32;46.71;102071.53;5040450;28;20096;-36
2022/07/22 10:48:23;;;;;;;8.38;1.20;;;;;;;23.05;46.76;102056.56;5040404;28;20033;-35
2022/07/22 10:50:55;;;;;;;6.85;1.02;;;;;;;23.42;46.17;102059.97;5039568;28;20021;-38
2022/07/22 10:53:51;;;;;;;4.18;1.17;;;;;;;23.54;46.83;102051.69;5040211;28;20060;-38
2022/07/22 10:56:31;;;;;;;4.80;1.02;;;;;;;23.52;45.90;102040.13;5039853;28;20029;-38
2022/07/22 10:58:59;;;;;;;4.55;1.17;;;;;;;24.17;44.83;102039.06;5039127;28;20045;-35
2022/07/22 11:01:28;;;;;;;3.22;1.00;;;;;;;25.06;43.27;102047.66;5040479;28;20022;-35
2022/07/22 11:03:54;;;;;;;3.92;1.00;;;;;;;25.88;41.58;102048.94;5039639;28;20055;-35
2022/07/22 11:06:29;;;;;;;3.95;1.00;;;;;;;25.38;41.75;102038.81;5040443;28;20431;-35
2022/07/22 11:09:00;;;;;;;3.38;1.08;;;;;;;24.93;42.01;102035.03;5039734;28;20049;-37
2022/07/22 11:11:40;;;;;;;3.42;1.10;;;;;;;24.85;43.00;102026.34;5038750;28;20036;-35
2022/07/22 11:14:20;;;;;;;3.78;1.05;;;;;;;25.75;40.33;102035.47;5038874;28;20032;-37
2022/07/22 11:16:48;;;;;;;2.95;0.90;;;;;;;26.31;39.69;102050.03;5039116;28;20040;-35
2022/07/22 11:19:13;;;;;;;2.33;1.00;;;;;;;26.04;38.84;102039.78;5021047;28;20026;-37
2022/07/22 11:21:39;;;;;;;4.20;1.00;;;;;;;25.43;40.79;102044.41;5020164;28;20032;-38
2022/07/22 11:24:06;;;;;;;4.65;1.30;;;;;;;24.66;42.49;102043.09;5039348;28;20033;-36